createdAt,value
2018-08-03T00:00:50.472Z,21.30
2018-08-03T00:03:18.857Z,21.30
2018-08-03T00:05:47.332Z,21.20
2018-08-03T00:08:16.046Z,21.20
2018-08-03T00:10:45.570Z,21.10
2018-08-03T00:13:13.951Z,21.10
2018-08-03T00:15:42.382Z,21.00
2018-08-03T00:18:10.733Z,21.00
2018-08-03T00:20:39.069Z,21.00
2018-08-03T00:23:07.490Z,21.00
2018-08-03T00:25:35.834Z,21.00
2018-08-03T00:28:04.277Z,21.00
2018-08-03T00:30:32.625Z,21.00
2018-08-03T00:33:00.994Z,21.00
2018-08-03T00:35:29.343Z,20.90
2018-08-03T00:37:57.691Z,20.90
2018-08-03T00:40:26.064Z,20.90
2018-08-03T00:42:54.403Z,20.80
2018-08-03T00:45:22.944Z,20.80
2018-08-03T00:47:51.367Z,20.70
2018-08-03T00:50:19.721Z,20.70
2018-08-03T00:52:48.068Z,20.60
2018-08-03T00:55:16.417Z,20.50
2018-08-03T00:57:44.765Z,20.50
2018-08-03T01:00:13.116Z,20.40
2018-08-03T01:02:41.549Z,20.40
2018-08-03T01:05:09.919Z,20.30
2018-08-03T01:07:38.308Z,20.30
2018-08-03T01:10:06.705Z,20.30
2018-08-03T01:12:35.103Z,20.20
2018-08-03T01:15:03.550Z,20.20
2018-08-03T01:17:31.913Z,20.20
2018-08-03T01:20:00.379Z,20.20
2018-08-03T01:22:28.773Z,20.10
2018-08-03T01:24:57.155Z,20.10
2018-08-03T01:27:25.499Z,20.10
2018-08-03T01:29:53.878Z,20.00
2018-08-03T01:34:50.329Z,19.90
2018-08-03T01:37:18.691Z,19.90
2018-08-03T01:39:47.123Z,19.80
2018-08-03T01:42:15.457Z,19.80
2018-08-03T01:44:43.814Z,19.70
2018-08-03T01:47:12.164Z,19.70
2018-08-03T01:49:40.571Z,19.70
2018-08-03T01:52:09.015Z,19.60
2018-08-03T01:54:37.444Z,19.60
2018-08-03T01:57:05.846Z,19.60
2018-08-03T01:59:34.168Z,19.50
2018-08-03T02:02:02.656Z,19.50
2018-08-03T02:04:30.996Z,19.50
2018-08-03T02:06:59.360Z,19.50
2018-08-03T02:09:27.687Z,19.40
2018-08-03T02:11:56.137Z,19.40
2018-08-03T02:14:24.504Z,19.40
2018-08-03T02:16:52.812Z,19.30
2018-08-03T02:19:21.156Z,19.30
2018-08-03T02:21:49.476Z,19.30
2018-08-03T02:24:17.899Z,19.30
2018-08-03T02:26:46.260Z,19.30
2018-08-03T02:29:14.647Z,19.20
2018-08-03T02:31:43.062Z,19.20
2018-08-03T02:34:11.393Z,19.20
2018-08-03T02:36:39.719Z,19.20
2018-08-03T02:39:09.491Z,19.20
2018-08-03T02:41:38.064Z,19.10
2018-08-03T02:44:06.806Z,19.00
2018-08-03T02:46:35.286Z,19.00
2018-08-03T02:49:03.678Z,19.00
2018-08-03T02:51:32.014Z,18.90
2018-08-03T02:54:00.432Z,18.90
2018-08-03T02:56:28.772Z,18.90
2018-08-03T02:58:57.122Z,18.80
2018-08-03T03:01:25.493Z,18.80
2018-08-03T03:03:53.997Z,18.80
2018-08-03T03:06:22.360Z,18.80
2018-08-03T03:08:50.680Z,18.80
2018-08-03T03:11:19.078Z,18.80
2018-08-03T03:13:47.415Z,18.80
2018-08-03T03:16:15.766Z,18.80
2018-08-03T03:18:44.116Z,18.80
2018-08-03T03:21:12.544Z,18.80
2018-08-03T03:23:40.850Z,18.70
2018-08-03T03:26:09.279Z,18.70
2018-08-03T03:28:37.626Z,18.70
2018-08-03T03:31:06.006Z,18.60
2018-08-03T03:33:34.376Z,18.60
2018-08-03T03:36:02.779Z,18.50
2018-08-03T03:38:31.190Z,18.50
2018-08-03T03:40:59.554Z,18.50
2018-08-03T03:43:27.899Z,18.40
2018-08-03T03:45:56.274Z,18.40
2018-08-03T03:48:24.659Z,18.40
2018-08-03T03:50:53.033Z,18.40
2018-08-03T03:53:21.384Z,18.30
2018-08-03T03:55:49.937Z,18.30
2018-08-03T03:58:18.331Z,18.30
2018-08-03T04:00:46.869Z,18.30
2018-08-03T04:03:15.606Z,18.40
2018-08-03T04:05:43.965Z,18.30
2018-08-03T04:08:12.558Z,18.30
2018-08-03T04:10:40.959Z,18.30
2018-08-03T04:13:09.471Z,18.30
2018-08-03T04:15:37.934Z,18.40
2018-08-03T04:18:10.720Z,18.40
2018-08-03T04:20:39.125Z,18.40
2018-08-03T04:23:09.556Z,18.40
2018-08-03T04:28:06.263Z,18.40
2018-08-03T04:30:34.819Z,18.50
2018-08-03T04:33:03.268Z,18.50
2018-08-03T04:35:31.655Z,18.50
2018-08-03T04:38:00.183Z,18.50
2018-08-03T04:40:28.743Z,18.60
2018-08-03T04:42:57.171Z,18.60
2018-08-03T04:45:25.603Z,18.70
2018-08-03T04:47:53.961Z,18.70
2018-08-03T04:50:22.396Z,18.80
2018-08-03T04:52:50.860Z,18.90
2018-08-03T04:55:19.286Z,18.90
2018-08-03T04:57:47.835Z,19.00
2018-08-03T05:00:16.561Z,19.10
2018-08-03T05:02:45.204Z,19.10
2018-08-03T05:05:13.821Z,19.20
2018-08-03T05:07:42.164Z,19.40
2018-08-03T05:10:10.861Z,19.50
2018-08-03T05:12:39.223Z,19.70
2018-08-03T05:15:08.448Z,19.90
2018-08-03T05:17:37.011Z,20.10
2018-08-03T05:20:05.567Z,20.30
2018-08-03T05:22:33.960Z,20.50
2018-08-03T05:25:06.188Z,20.80
2018-08-03T05:27:34.570Z,21.00
2018-08-03T05:30:03.147Z,21.20
2018-08-03T05:32:31.647Z,21.40
2018-08-03T05:35:00.311Z,21.50
2018-08-03T05:37:28.675Z,21.70
2018-08-03T05:39:57.157Z,21.90
2018-08-03T05:42:25.748Z,22.10
2018-08-03T05:44:54.400Z,22.40
2018-08-03T05:47:22.742Z,22.50
2018-08-03T05:49:53.936Z,22.70
2018-08-03T05:52:22.658Z,22.90
2018-08-03T05:54:51.395Z,23.10
2018-08-03T05:57:20.730Z,23.30
2018-08-03T05:59:49.302Z,23.50
2018-08-03T06:02:17.762Z,23.70
2018-08-03T06:04:46.229Z,23.80
2018-08-03T06:07:14.567Z,24.00
2018-08-03T06:09:43.079Z,24.20
2018-08-03T06:12:11.421Z,24.20
2018-08-03T06:14:39.798Z,24.50
2018-08-03T06:17:08.412Z,24.80
2018-08-03T06:19:36.787Z,25.10
2018-08-03T06:22:05.467Z,25.40
2018-08-03T06:24:33.942Z,25.70
2018-08-03T06:27:02.458Z,26.00
2018-08-03T06:29:31.449Z,26.30
2018-08-03T06:31:59.796Z,26.50
2018-08-03T06:34:28.237Z,26.70
2018-08-03T06:36:56.595Z,27.00
2018-08-03T06:39:24.960Z,27.40
2018-08-03T06:41:54.559Z,27.60
2018-08-03T06:44:23.082Z,27.90
2018-08-03T06:46:51.441Z,28.10
2018-08-03T06:49:19.831Z,28.20
2018-08-03T06:51:48.237Z,28.50
2018-08-03T06:54:16.624Z,28.80
2018-08-03T06:56:45.024Z,28.70
2018-08-03T06:59:13.343Z,28.80
2018-08-03T07:04:32.357Z,29.60
2018-08-03T07:07:00.890Z,30.00
2018-08-03T07:09:29.315Z,30.00
2018-08-03T07:11:57.750Z,30.10
2018-08-03T07:14:26.124Z,30.00
2018-08-03T07:16:54.439Z,30.10
2018-08-03T07:19:22.811Z,30.20
2018-08-03T07:21:51.147Z,30.30
2018-08-03T07:24:19.550Z,30.50
2018-08-03T07:26:47.904Z,30.70
2018-08-03T07:29:16.290Z,31.00
2018-08-03T07:31:44.669Z,30.90
2018-08-03T07:34:13.034Z,31.00
2018-08-03T07:36:41.351Z,31.30
2018-08-03T07:39:09.864Z,31.30
2018-08-03T07:41:41.269Z,31.40
2018-08-03T07:44:09.636Z,31.40
2018-08-03T07:49:06.144Z,31.70
2018-08-03T07:51:34.554Z,31.90
2018-08-03T07:54:02.981Z,32.20
2018-08-03T07:56:31.326Z,32.20
2018-08-03T07:58:59.690Z,32.30
2018-08-03T08:01:28.159Z,32.50
2018-08-03T08:03:56.534Z,32.80
2018-08-03T08:06:24.917Z,33.10
2018-08-03T08:08:53.272Z,33.40
2018-08-03T08:11:35.373Z,33.30
2018-08-03T08:14:06.256Z,33.50
2018-08-03T08:16:36.438Z,33.40
2018-08-03T08:19:12.163Z,33.50
2018-08-03T08:21:43.591Z,33.50
2018-08-03T08:24:25.814Z,33.10
2018-08-03T08:26:54.435Z,33.00
2018-08-03T08:29:23.028Z,33.40
2018-08-03T08:31:51.479Z,33.70
2018-08-03T08:34:20.711Z,33.90
2018-08-03T08:36:49.174Z,34.20
2018-08-03T08:39:17.514Z,34.60
2018-08-03T08:41:45.957Z,35.10
2018-08-03T08:44:14.606Z,35.00
2018-08-03T08:46:43.385Z,35.00
2018-08-03T08:49:11.895Z,35.30
2018-08-03T08:51:40.257Z,35.60
2018-08-03T08:54:08.628Z,35.80
2018-08-03T08:56:37.148Z,35.00
2018-08-03T08:59:05.589Z,35.10
2018-08-03T09:01:33.975Z,35.30
2018-08-03T09:04:02.350Z,35.20
2018-08-03T09:06:30.807Z,35.50
2018-08-03T09:08:59.212Z,34.70
2018-08-03T09:11:27.560Z,35.10
2018-08-03T09:13:55.912Z,35.50
2018-08-03T09:16:24.381Z,35.70
2018-08-03T09:18:53.047Z,36.10
2018-08-03T09:21:21.396Z,36.30
2018-08-03T09:23:49.778Z,36.50
2018-08-03T09:26:18.155Z,36.70
2018-08-03T09:28:46.503Z,36.90
2018-08-03T09:31:14.877Z,37.30
2018-08-03T09:33:44.220Z,37.50
2018-08-03T09:36:12.601Z,37.50
2018-08-03T09:38:40.970Z,37.30
2018-08-03T09:41:09.404Z,37.80
2018-08-03T09:43:37.893Z,37.90
2018-08-03T09:46:06.399Z,38.10
2018-08-03T09:48:34.797Z,38.50
2018-08-03T09:51:03.281Z,38.60
2018-08-03T09:53:31.691Z,38.80
2018-08-03T09:56:00.071Z,38.80
2018-08-03T09:58:28.555Z,38.70
2018-08-03T10:01:01.171Z,38.20
2018-08-03T10:03:29.652Z,38.40
2018-08-03T10:05:58.006Z,38.50
2018-08-03T10:08:26.368Z,38.60
2018-08-03T10:10:54.769Z,38.40
2018-08-03T10:13:23.080Z,38.30
2018-08-03T10:15:51.438Z,38.50
2018-08-03T10:18:19.937Z,38.70
2018-08-03T10:20:48.363Z,39.00
2018-08-03T10:23:16.852Z,39.30
2018-08-03T10:25:45.395Z,39.60
2018-08-03T10:28:13.766Z,39.70
2018-08-03T10:30:42.150Z,40.00
2018-08-03T10:33:10.566Z,40.20
2018-08-03T10:35:38.965Z,40.00
2018-08-03T10:38:07.367Z,39.60
2018-08-03T10:40:35.720Z,39.40
2018-08-03T10:43:04.149Z,39.50
2018-08-03T10:45:32.544Z,39.50
2018-08-03T10:48:01.048Z,39.30
2018-08-03T10:50:29.416Z,37.80
2018-08-03T10:52:57.776Z,37.50
2018-08-03T10:55:26.188Z,37.70
2018-08-03T10:57:54.630Z,38.40
2018-08-03T11:00:28.907Z,38.70
2018-08-03T11:02:58.043Z,39.10
2018-08-03T11:05:26.840Z,38.10
2018-08-03T11:07:55.208Z,37.60
2018-08-03T11:12:52.165Z,37.30
2018-08-03T11:15:20.520Z,38.20
2018-08-03T11:17:52.003Z,38.40
2018-08-03T11:22:48.583Z,38.30
2018-08-03T11:25:17.075Z,38.60
2018-08-03T11:27:45.538Z,38.70
2018-08-03T11:30:13.973Z,39.20
2018-08-03T11:32:42.421Z,39.90
2018-08-03T11:35:11.025Z,40.10
2018-08-03T11:37:39.410Z,39.80
2018-08-03T11:40:08.501Z,39.50
2018-08-03T11:42:36.965Z,39.20
2018-08-03T11:45:07.142Z,38.20
2018-08-03T11:47:35.765Z,38.20
2018-08-03T11:50:05.223Z,38.60
2018-08-03T11:52:33.622Z,39.20
2018-08-03T11:55:02.045Z,39.00
2018-08-03T11:57:30.413Z,39.30
2018-08-03T11:59:58.987Z,39.40
2018-08-03T12:02:27.376Z,39.60
2018-08-03T12:04:55.802Z,39.90
2018-08-03T12:07:24.166Z,40.20
2018-08-03T12:09:52.529Z,40.40
2018-08-03T12:12:20.961Z,40.30
2018-08-03T12:14:49.438Z,39.90
2018-08-03T12:17:17.881Z,40.20
2018-08-03T12:19:46.296Z,40.00
2018-08-03T12:22:14.766Z,40.60
2018-08-03T12:24:43.153Z,40.40
2018-08-03T12:27:11.543Z,40.70
2018-08-03T12:29:40.041Z,40.80
2018-08-03T12:32:08.477Z,41.10
2018-08-03T12:34:37.029Z,41.10
2018-08-03T12:37:05.517Z,41.20
2018-08-03T12:42:02.069Z,41.20
2018-08-03T12:44:30.530Z,41.50
2018-08-03T12:46:58.970Z,41.60
2018-08-03T12:49:27.396Z,41.60
2018-08-03T12:51:55.860Z,41.40
2018-08-03T12:54:24.333Z,40.90
2018-08-03T12:56:52.788Z,41.00
2018-08-03T12:59:21.262Z,41.00
2018-08-03T13:01:49.675Z,40.30
2018-08-03T13:04:18.034Z,39.80
2018-08-03T13:06:46.395Z,40.40
2018-08-03T13:09:14.788Z,40.50
2018-08-03T13:11:43.284Z,39.40
2018-08-03T13:14:11.693Z,39.40
2018-08-03T13:19:08.228Z,40.50
2018-08-03T13:21:39.344Z,41.00
2018-08-03T13:24:07.715Z,41.40
2018-08-03T13:26:36.176Z,41.40
2018-08-03T13:29:04.685Z,41.50
2018-08-03T13:31:33.199Z,41.50
2018-08-03T13:34:01.552Z,41.70
2018-08-03T13:36:30.877Z,42.00
2018-08-03T13:38:59.427Z,42.40
2018-08-03T13:41:27.728Z,42.50
2018-08-03T13:43:56.224Z,42.40
2018-08-03T13:46:24.626Z,42.10
2018-08-03T13:48:53.084Z,42.10
2018-08-03T13:51:21.496Z,41.90
2018-08-03T13:53:49.871Z,41.80
2018-08-03T13:56:18.901Z,42.10
2018-08-03T13:58:47.719Z,42.20
2018-08-03T14:01:27.458Z,41.90
2018-08-03T14:03:55.913Z,40.60
2018-08-03T14:06:24.351Z,40.30
2018-08-03T14:08:52.712Z,40.50
2018-08-03T14:11:21.151Z,40.70
2018-08-03T14:13:49.538Z,40.50
2018-08-03T14:16:17.955Z,40.80
2018-08-03T14:18:47.426Z,40.80
2018-08-03T14:21:15.908Z,41.00
2018-08-03T14:23:44.497Z,41.20
2018-08-03T14:26:12.842Z,41.30
2018-08-03T14:28:41.244Z,41.40
2018-08-03T14:31:09.753Z,41.60
2018-08-03T14:33:38.120Z,41.70
2018-08-03T14:36:12.853Z,42.00
2018-08-03T14:38:41.216Z,42.10
2018-08-03T14:41:09.624Z,42.20
2018-08-03T14:43:38.034Z,42.00
2018-08-03T14:46:06.454Z,42.10
2018-08-03T14:48:34.848Z,42.50
2018-08-03T14:51:03.312Z,43.00
2018-08-03T14:55:59.815Z,42.70
2018-08-03T14:58:28.283Z,43.10
2018-08-03T15:00:56.680Z,43.30
2018-08-03T15:03:25.064Z,43.40
2018-08-03T15:05:53.444Z,43.70
2018-08-03T15:08:21.979Z,43.80
2018-08-03T15:10:50.412Z,43.50
2018-08-03T15:13:19.116Z,43.50
2018-08-03T15:15:47.513Z,43.50
2018-08-03T15:18:15.896Z,43.60
2018-08-03T15:20:44.253Z,43.60
2018-08-03T15:23:12.632Z,43.40
2018-08-03T15:25:41.018Z,43.30
2018-08-03T15:28:09.373Z,43.40
2018-08-03T15:30:37.832Z,42.90
2018-08-03T15:33:06.265Z,41.70
2018-08-03T15:35:34.626Z,41.70
2018-08-03T15:38:03.043Z,41.90
2018-08-03T15:40:31.424Z,41.90
2018-08-03T15:42:59.791Z,41.90
2018-08-03T15:45:28.186Z,41.30
2018-08-03T15:47:56.563Z,40.70
2018-08-03T15:50:24.929Z,40.80
2018-08-03T15:52:53.337Z,40.70
2018-08-03T15:55:21.741Z,40.00
2018-08-03T15:57:50.120Z,39.90
2018-08-03T16:00:18.496Z,39.80
2018-08-03T16:02:46.935Z,39.60
2018-08-03T16:05:15.412Z,39.40
2018-08-03T16:07:43.807Z,39.30
2018-08-03T16:10:12.141Z,39.30
2018-08-03T16:12:40.526Z,39.20
2018-08-03T16:15:08.973Z,38.80
2018-08-03T16:17:37.344Z,38.60
2018-08-03T16:20:05.801Z,38.40
2018-08-03T16:22:34.196Z,38.30
2018-08-03T16:25:02.648Z,38.10
2018-08-03T16:27:31.121Z,38.00
2018-08-03T16:29:59.531Z,37.80
2018-08-03T16:32:27.929Z,37.70
2018-08-03T16:34:56.353Z,37.50
2018-08-03T16:37:24.815Z,37.20
2018-08-03T16:39:53.184Z,37.00
2018-08-03T16:42:21.625Z,36.90
2018-08-03T16:44:50.073Z,36.90
2018-08-03T16:47:18.421Z,36.90
2018-08-03T16:49:46.820Z,36.80
2018-08-03T16:52:15.358Z,36.70
2018-08-03T16:54:43.812Z,36.60
2018-08-03T16:57:12.299Z,36.40
2018-08-03T16:59:40.774Z,36.30
2018-08-03T17:02:09.158Z,36.20
2018-08-03T17:04:37.685Z,36.10
2018-08-03T17:07:06.068Z,35.90
2018-08-03T17:09:34.469Z,35.90
2018-08-03T17:12:02.805Z,35.80
2018-08-03T17:14:31.300Z,35.60
2018-08-03T17:16:59.664Z,35.40
2018-08-03T17:19:28.075Z,35.20
2018-08-03T17:21:56.506Z,35.10
2018-08-03T17:24:24.850Z,34.90
2018-08-03T17:26:53.232Z,34.80
2018-08-03T17:29:21.696Z,34.60
2018-08-03T17:31:50.148Z,34.50
2018-08-03T17:34:18.544Z,34.30
2018-08-03T17:36:46.989Z,34.20
2018-08-03T17:39:15.344Z,34.10
2018-08-03T17:41:43.731Z,33.90
2018-08-03T17:44:12.137Z,33.80
2018-08-03T17:46:40.515Z,33.80
2018-08-03T17:49:08.908Z,33.70
2018-08-03T17:51:37.360Z,33.60
2018-08-03T17:54:05.787Z,33.60
2018-08-03T17:56:34.299Z,33.40
2018-08-03T17:59:02.756Z,33.30
2018-08-03T18:01:31.203Z,33.20
2018-08-03T18:03:59.685Z,33.10
2018-08-03T18:06:28.065Z,33.00
2018-08-03T18:08:56.415Z,32.80
2018-08-03T18:11:24.854Z,32.70
2018-08-03T18:13:53.306Z,32.60
2018-08-03T18:16:21.685Z,32.50
2018-08-03T18:18:50.283Z,32.40
2018-08-03T18:21:18.684Z,32.20
2018-08-03T18:23:47.157Z,32.10
2018-08-03T18:26:15.526Z,31.90
2018-08-03T18:28:44.229Z,31.80
2018-08-03T18:31:12.681Z,31.70
2018-08-03T18:33:41.243Z,31.50
2018-08-03T18:36:09.656Z,31.30
2018-08-03T18:38:38.126Z,31.20
2018-08-03T18:41:06.531Z,31.00
2018-08-03T18:43:34.888Z,30.90
2018-08-03T18:46:03.452Z,30.70
2018-08-03T18:48:31.851Z,30.60
2018-08-03T18:51:00.279Z,30.50
2018-08-03T18:53:28.791Z,30.30
2018-08-03T18:55:57.158Z,30.20
2018-08-03T18:58:25.532Z,30.10
2018-08-03T19:00:53.970Z,30.00
2018-08-03T19:03:22.328Z,29.90
2018-08-03T19:05:50.721Z,29.80
2018-08-03T19:08:19.089Z,29.80
2018-08-03T19:10:47.449Z,29.70
2018-08-03T19:13:15.872Z,29.60
2018-08-03T19:15:44.299Z,29.50
2018-08-03T19:18:12.639Z,29.40
2018-08-03T19:20:41.039Z,29.30
2018-08-03T19:23:09.383Z,29.20
2018-08-03T19:25:37.716Z,29.10
2018-08-03T19:28:06.455Z,29.00
2018-08-03T19:30:34.921Z,28.80
2018-08-03T19:33:03.644Z,28.70
2018-08-03T19:35:33.360Z,28.60
2018-08-03T19:38:02.362Z,28.50
2018-08-03T19:40:31.007Z,28.50
2018-08-03T19:42:59.417Z,28.40
2018-08-03T19:45:28.501Z,28.30
2018-08-03T19:47:57.060Z,28.20
2018-08-03T19:50:25.514Z,28.10
2018-08-03T19:52:53.900Z,28.00
2018-08-03T19:55:22.503Z,27.90
2018-08-03T19:57:51.421Z,27.80
2018-08-03T20:00:19.922Z,27.70
2018-08-03T20:02:48.267Z,27.60
2018-08-03T20:05:17.524Z,27.60
2018-08-03T20:07:46.128Z,27.50
2018-08-03T20:10:14.574Z,27.40
2018-08-03T20:12:42.953Z,27.30
2018-08-03T20:15:11.361Z,27.20
2018-08-03T20:17:39.898Z,27.20
2018-08-03T20:20:08.379Z,27.10
2018-08-03T20:22:36.910Z,27.10
2018-08-03T20:25:05.988Z,27.00
2018-08-03T20:27:34.380Z,26.90
2018-08-03T20:30:02.778Z,26.80
2018-08-03T20:32:31.192Z,26.80
2018-08-03T20:34:59.713Z,26.70
2018-08-03T20:37:29.187Z,26.60
2018-08-03T20:39:57.727Z,26.60
2018-08-03T20:42:26.162Z,26.50
2018-08-03T20:44:54.660Z,26.50
2018-08-03T20:47:22.968Z,26.40
2018-08-03T20:49:51.372Z,26.30
2018-08-03T20:52:19.812Z,26.30
2018-08-03T20:54:48.231Z,26.20
2018-08-03T20:57:16.600Z,26.20
2018-08-03T20:59:45.032Z,26.10
2018-08-03T21:02:13.448Z,26.10
2018-08-03T21:04:41.856Z,26.00
2018-08-03T21:07:10.227Z,26.00
2018-08-03T21:09:38.890Z,25.90
2018-08-03T21:12:07.360Z,25.80
2018-08-03T21:14:36.679Z,25.80
2018-08-03T21:17:05.202Z,25.70
2018-08-03T21:19:33.815Z,25.70
2018-08-03T21:22:02.327Z,25.60
2018-08-03T21:24:30.960Z,25.50
2018-08-03T21:26:59.408Z,25.50
2018-08-03T21:29:27.834Z,25.40
2018-08-03T21:31:56.282Z,25.30
2018-08-03T21:34:24.634Z,25.30
2018-08-03T21:36:53.041Z,25.20
2018-08-03T21:39:21.476Z,25.20
2018-08-03T21:41:49.826Z,25.10
2018-08-03T21:44:18.518Z,25.10
2018-08-03T21:46:46.846Z,25.00
2018-08-03T21:49:15.163Z,25.00
2018-08-03T21:51:43.530Z,24.90
2018-08-03T21:54:12.435Z,24.90
2018-08-03T21:56:40.946Z,24.90
2018-08-03T21:59:09.346Z,24.80
2018-08-03T22:01:37.817Z,24.80
2018-08-03T22:04:06.229Z,24.70
2018-08-03T22:06:34.658Z,24.60
2018-08-03T22:09:03.363Z,24.50
2018-08-03T22:11:32.295Z,24.40
2018-08-03T22:14:00.674Z,24.30
2018-08-03T22:16:29.019Z,24.10
2018-08-03T22:18:57.577Z,24.10
2018-08-03T22:21:25.960Z,24.00
2018-08-03T22:23:54.398Z,24.00
2018-08-03T22:26:22.742Z,23.90
2018-08-03T22:28:51.113Z,23.90
2018-08-03T22:31:19.491Z,23.80
2018-08-03T22:33:48.024Z,23.80
2018-08-03T22:36:16.415Z,23.70
2018-08-03T22:38:44.900Z,23.70
2018-08-03T22:41:13.290Z,23.60
2018-08-03T22:43:41.769Z,23.50
2018-08-03T22:46:10.150Z,23.50
2018-08-03T22:48:38.630Z,23.40
2018-08-03T22:51:07.074Z,23.30
2018-08-03T22:53:35.423Z,23.30
2018-08-03T22:56:03.878Z,23.20
2018-08-03T22:58:32.234Z,23.20
2018-08-03T23:01:00.578Z,23.10
2018-08-03T23:03:28.968Z,23.10
2018-08-03T23:06:00.135Z,23.10
2018-08-03T23:08:28.630Z,23.00
2018-08-03T23:10:56.999Z,23.00
2018-08-03T23:13:25.451Z,22.90
2018-08-03T23:15:54.406Z,22.90
2018-08-03T23:18:23.106Z,22.80
2018-08-03T23:20:51.559Z,22.80
2018-08-03T23:23:19.938Z,22.80
2018-08-03T23:25:48.896Z,22.70
2018-08-03T23:28:17.250Z,22.60
2018-08-03T23:30:46.101Z,22.50
2018-08-03T23:33:15.089Z,22.50
2018-08-03T23:35:43.543Z,22.40
2018-08-03T23:38:11.925Z,22.40
2018-08-03T23:40:41.063Z,22.30
2018-08-03T23:43:09.480Z,22.30
2018-08-03T23:45:38.046Z,22.20
2018-08-03T23:48:06.787Z,22.20
2018-08-03T23:50:35.143Z,22.10
2018-08-03T23:53:03.566Z,22.10
2018-08-03T23:55:32.866Z,22.00
2018-08-03T23:58:02.313Z,22.00
